Time;durP1;ratioP1;P1;durP2;ratioP2;P2;SDS_P1;SDS_P2;PMS_P1;PMS_P2;Temp;Humidity;BMP_temperature;BMP_pressure;BME280_temperature;BME280_humidity;BME280_pressure;Samples;Min_cycle;Max_cycle;Signal;HPM_P1;HPM_P2
2024/04/08 00:02:00;;;;;;;;;;;;;;;;;;5602491;25;20314;-71
2024/04/08 00:04:26;;;;;;;;;;;;;;;;;;5569603;25;19926;-71
2024/04/08 00:06:52;;;;;;;;;;;;;;;;;;5569094;25;20354;-71
2024/04/08 00:09:18;;;;;;;;;;;;;;;;;;5602967;25;19926;-71
2024/04/08 00:11:44;;;;;;;;;;;;;;;;;;5602950;25;20311;-71
2024/04/08 00:14:10;;;;;;;;;;;;;;;;;;5602295;25;20262;-71
2024/04/08 00:16:36;;;;;;;;;;;;;;;;;;5602570;25;19938;-71
2024/04/08 00:19:02;;;;;;;;;;;;;;;;;;5569176;25;19933;-71
2024/04/08 00:21:28;;;;;;;;;;;;;;;;;;5602240;25;20321;-71
2024/04/08 00:23:54;;;;;;;;;;;;;;;;;;5602707;25;19927;-70
2024/04/08 00:26:20;;;;;;;;;;;;;;;;;;5569101;25;19933;-70
2024/04/08 00:28:46;;;;;;;;;;;;;;;;;;5601999;25;19926;-71
2024/04/08 00:31:12;;;;;;;;;;;;;;;;;;5602724;25;20282;-71
2024/04/08 00:33:38;;;;;;;;;;;;;;;;;;5602503;25;19934;-72
2024/04/08 00:36:04;;;;;;;;;;;;;;;;;;5568456;25;19934;-72
2024/04/08 00:38:30;;;;;;;;;;;;;;;;;;5602267;25;20374;-72
2024/04/08 00:40:58;;;;;;;;;;;;;;;;;;5568834;25;19930;-71
2024/04/08 00:43:24;;;;;;;;;;;;;;;;;;5601816;25;19994;-71
2024/04/08 00:45:50;;;;;;;;;;;;;;;;;;5568600;25;19938;-71
2024/04/08 00:48:16;;;;;;;;;;;;;;;;;;5602171;25;20028;-71
2024/04/08 00:50:42;;;;;;;;;;;;;;;;;;5601753;25;19926;-72
2024/04/08 00:53:08;;;;;;;;;;;;;;;;;;5601932;25;19926;-72
2024/04/08 00:55:33;;;;;;;;;;;;;;;;;;5602014;25;19927;-72
2024/04/08 00:57:59;;;;;;;;;;;;;;;;;;5601623;25;19927;-71
2024/04/08 01:00:25;;;;;;;;;;;;;;;;;;5601792;25;19926;-71
2024/04/08 01:02:51;;;;;;;;;;;;;;;;;;5602877;25;19975;-71
2024/04/08 01:05:17;;;;;;;;;;;;;;;;;;5571737;25;19927;-71
2024/04/08 01:07:43;;;;;;;;;;;;;;;;;;5605840;25;19933;-72
2024/04/08 01:10:09;;;;;;;;;;;;;;;;;;5605255;25;19926;-72
2024/04/08 01:12:35;;;;;;;;;;;;;;;;;;5572026;25;19933;-72
2024/04/08 01:15:01;;;;;;;;;;;;;;;;;;5605715;25;19994;-71
2024/04/08 01:17:27;;;;;;;;;;;;;;;;;;5604847;25;19926;-72
2024/04/08 01:19:53;;;;;;;;;;;;;;;;;;5572027;25;19930;-71
2024/04/08 01:22:19;;;;;;;;;;;;;;;;;;5605500;25;20393;-71
2024/04/08 01:24:45;;;;;;;;;;;;;;;;;;5571528;25;19933;-71
2024/04/08 01:27:11;;;;;;;;;;;;;;;;;;5605698;25;19942;-71
2024/04/08 01:29:37;;;;;;;;;;;;;;;;;;5605443;25;19926;-71
2024/04/08 01:32:03;;;;;;;;;;;;;;;;;;5604825;25;20260;-71
2024/04/08 01:34:28;;;;;;;;;;;;;;;;;;5605382;25;19938;-71
2024/04/08 01:36:54;;;;;;;;;;;;;;;;;;5605220;25;19994;-72
2024/04/08 01:39:21;;;;;;;;;;;;;;;;;;5571247;25;19927;-72
2024/04/08 01:41:47;;;;;;;;;;;;;;;;;;5571747;25;19926;-72
2024/04/08 01:44:13;;;;;;;;;;;;;;;;;;5571666;25;19933;-71
2024/04/08 01:46:39;;;;;;;;;;;;;;;;;;5571222;25;19934;-72
2024/04/08 01:49:05;;;;;;;;;;;;;;;;;;5605156;25;19927;-71
2024/04/08 01:51:31;;;;;;;;;;;;;;;;;;5605165;25;19933;-72
2024/04/08 01:53:57;;;;;;;;;;;;;;;;;;5604619;25;19930;-71
2024/04/08 01:56:23;;;;;;;;;;;;;;;;;;5604923;25;19927;-71
2024/04/08 01:58:49;;;;;;;;;;;;;;;;;;5605008;25;19937;-71
2024/04/08 02:01:15;;;;;;;;;;;;;;;;;;5604475;25;19934;-70
2024/04/08 02:03:41;;;;;;;;;;;;;;;;;;5604842;25;20378;-71
2024/04/08 02:06:07;;;;;;;;;;;;;;;;;;5604926;25;19926;-71
2024/04/08 02:08:32;;;;;;;;;;;;;;;;;;5604212;25;19933;-71
2024/04/08 02:10:58;;;;;;;;;;;;;;;;;;5571279;25;20366;-71
2024/04/08 02:13:24;;;;;;;;;;;;;;;;;;5604055;25;19927;-71
2024/04/08 02:15:50;;;;;;;;;;;;;;;;;;5570827;25;19930;-71
2024/04/08 02:18:16;;;;;;;;;;;;;;;;;;5571193;25;19933;-71
2024/04/08 02:20:42;;;;;;;;;;;;;;;;;;5604085;25;19926;-71
2024/04/08 02:23:08;;;;;;;;;;;;;;;;;;5571119;25;20358;-71
2024/04/08 02:25:34;;;;;;;;;;;;;;;;;;5570981;25;20355;-71
2024/04/08 02:28:00;;;;;;;;;;;;;;;;;;5603981;25;20315;-71
2024/04/08 02:30:26;;;;;;;;;;;;;;;;;;5604513;25;20248;-70
2024/04/08 02:32:52;;;;;;;;;;;;;;;;;;5604451;25;19930;-70
2024/04/08 02:35:18;;;;;;;;;;;;;;;;;;5570567;25;20037;-71
2024/04/08 02:37:44;;;;;;;;;;;;;;;;;;5604375;25;19933;-71
2024/04/08 02:40:10;;;;;;;;;;;;;;;;;;5604362;25;19937;-71
2024/04/08 02:42:36;;;;;;;;;;;;;;;;;;5604002;25;19994;-71
2024/04/08 02:45:03;;;;;;;;;;;;;;;;;;5604317;25;19926;-71
2024/04/08 02:47:29;;;;;;;;;;;;;;;;;;5604098;25;20419;-71
2024/04/08 02:49:55;;;;;;;;;;;;;;;;;;5603751;25;19927;-72
2024/04/08 02:52:21;;;;;;;;;;;;;;;;;;5604120;25;19994;-71
2024/04/08 02:54:46;;;;;;;;;;;;;;;;;;5604082;25;20288;-71
2024/04/08 02:57:12;;;;;;;;;;;;;;;;;;5603578;25;19934;-71
2024/04/08 02:59:38;;;;;;;;;;;;;;;;;;5570480;25;19926;-71
2024/04/08 03:02:04;;;;;;;;;;;;;;;;;;5570544;25;20347;-71
2024/04/08 03:04:30;;;;;;;;;;;;;;;;;;5603559;25;20379;-71
2024/04/08 03:06:56;;;;;;;;;;;;;;;;;;5603828;25;19938;-71
2024/04/08 03:09:22;;;;;;;;;;;;;;;;;;5570297;25;19959;-71
2024/04/08 03:11:48;;;;;;;;;;;;;;;;;;5603386;25;19927;-71
2024/04/08 03:14:14;;;;;;;;;;;;;;;;;;5604022;25;20286;-71
2024/04/08 03:16:43;;;;;;;;;;;;;;;;;;5569395;25;19941;-71
2024/04/08 03:19:09;;;;;;;;;;;;;;;;;;5603391;25;19934;-71
2024/04/08 03:21:35;;;;;;;;;;;;;;;;;;5603481;25;19934;-71
2024/04/08 03:24:02;;;;;;;;;;;;;;;;;;5602981;25;19946;-71
2024/04/08 03:26:28;;;;;;;;;;;;;;;;;;5602431;25;19933;-71
2024/04/08 03:28:54;;;;;;;;;;;;;;;;;;5603374;25;19927;-71
2024/04/08 03:31:20;;;;;;;;;;;;;;;;;;5602753;25;19962;-71
2024/04/08 03:33:46;;;;;;;;;;;;;;;;;;5603248;25;19926;-70
2024/04/08 03:36:16;;;;;;;;;;;;;;;;;;5603151;25;19926;-71
2024/04/08 03:38:42;;;;;;;;;;;;;;;;;;5569212;25;19974;-72
2024/04/08 03:41:08;;;;;;;;;;;;;;;;;;5569672;25;20318;-71
2024/04/08 03:43:34;;;;;;;;;;;;;;;;;;5569601;25;20310;-70
2024/04/08 03:46:00;;;;;;;;;;;;;;;;;;5602585;25;19932;-71
2024/04/08 03:48:26;;;;;;;;;;;;;;;;;;5569450;25;19938;-71
2024/04/08 03:50:51;;;;;;;;;;;;;;;;;;5602835;25;19926;-71
2024/04/08 03:53:17;;;;;;;;;;;;;;;;;;5568922;25;19927;-70
2024/04/08 03:55:43;;;;;;;;;;;;;;;;;;5569234;25;19926;-71
2024/04/08 03:58:09;;;;;;;;;;;;;;;;;;5602879;25;20366;-71
2024/04/08 04:00:35;;;;;;;;;;;;;;;;;;5602165;25;20370;-70
2024/04/08 04:03:01;;;;;;;;;;;;;;;;;;5602567;25;20392;-71
2024/04/08 04:05:27;;;;;;;;;;;;;;;;;;5602508;25;20235;-71
2024/04/08 04:07:56;;;;;;;;;;;;;;;;;;5602022;25;19934;-71
2024/04/08 04:10:22;;;;;;;;;;;;;;;;;;5602494;25;19930;-71
2024/04/08 04:12:48;;;;;;;;;;;;;;;;;;5568944;25;20296;-71
2024/04/08 04:15:14;;;;;;;;;;;;;;;;;;5602197;25;19926;-71
2024/04/08 04:17:40;;;;;;;;;;;;;;;;;;5602582;25;20264;-72
2024/04/08 04:20:09;;;;;;;;;;;;;;;;;;5568704;25;20299;-71
2024/04/08 04:22:35;;;;;;;;;;;;;;;;;;5602559;25;19937;-70
2024/04/08 04:25:01;;;;;;;;;;;;;;;;;;5602638;25;20362;-71
2024/04/08 04:27:27;;;;;;;;;;;;;;;;;;5601709;25;19926;-70
2024/04/08 04:29:53;;;;;;;;;;;;;;;;;;5602574;25;19938;-70
2024/04/08 04:32:19;;;;;;;;;;;;;;;;;;5602435;25;19931;-71
2024/04/08 04:34:45;;;;;;;;;;;;;;;;;;5601874;25;19934;-71
2024/04/08 04:37:11;;;;;;;;;;;;;;;;;;5567474;25;19926;-71
2024/04/08 04:39:37;;;;;;;;;;;;;;;;;;5605037;25;19926;-71
2024/04/08 04:42:03;;;;;;;;;;;;;;;;;;5603534;25;20369;-71
2024/04/08 04:44:29;;;;;;;;;;;;;;;;;;5602468;25;19926;-71
2024/04/08 04:46:55;;;;;;;;;;;;;;;;;;5602202;25;19937;-72
2024/04/08 04:49:21;;;;;;;;;;;;;;;;;;5601848;25;19934;-71
2024/04/08 04:51:47;;;;;;;;;;;;;;;;;;5601999;25;19926;-71
2024/04/08 04:54:13;;;;;;;;;;;;;;;;;;5602197;25;19931;-72
2024/04/08 04:56:38;;;;;;;;;;;;;;;;;;5601639;25;19945;-72
2024/04/08 04:59:04;;;;;;;;;;;;;;;;;;5602191;25;20033;-71
2024/04/08 05:01:30;;;;;;;;;;;;;;;;;;5568479;25;19926;-71
2024/04/08 05:03:56;;;;;;;;;;;;;;;;;;5601546;25;20382;-72
2024/04/08 05:06:22;;;;;;;;;;;;;;;;;;5571103;25;20350;-71
2024/04/08 05:08:49;;;;;;;;;;;;;;;;;;5605713;25;19926;-73
2024/04/08 05:11:15;;;;;;;;;;;;;;;;;;5571863;25;19934;-72
2024/04/08 05:13:41;;;;;;;;;;;;;;;;;;5572035;25;19926;-73
2024/04/08 05:16:10;;;;;;;;;;;;;;;;;;5604380;25;19933;-73
2024/04/08 05:18:36;;;;;;;;;;;;;;;;;;5565488;25;20326;-72
2024/04/08 05:21:02;;;;;;;;;;;;;;;;;;5563708;25;19927;-72
2024/04/08 05:23:28;;;;;;;;;;;;;;;;;;5604063;25;19926;-71
2024/04/08 05:25:54;;;;;;;;;;;;;;;;;;5569609;25;19926;-71
2024/04/08 05:28:22;;;;;;;;;;;;;;;;;;5598259;25;19926;-67
2024/04/08 05:30:48;;;;;;;;;;;;;;;;;;5602351;25;19927;-67
2024/04/08 05:33:14;;;;;;;;;;;;;;;;;;5568505;25;19926;-68
2024/04/08 05:35:40;;;;;;;;;;;;;;;;;;5569302;25;19926;-68
2024/04/08 05:38:06;;;;;;;;;;;;;;;;;;5600507;25;20026;-72
2024/04/08 05:40:32;;;;;;;;;;;;;;;;;;5600596;25;19946;-72
2024/04/08 05:42:58;;;;;;;;;;;;;;;;;;5571635;25;19927;-73
2024/04/08 05:45:24;;;;;;;;;;;;;;;;;;5581793;25;19926;-74
2024/04/08 05:47:54;;;;;;;;;;;;;;;;;;5596943;25;20019;-72
2024/04/08 05:50:20;;;;;;;;;;;;;;;;;;5601047;25;19994;-69
2024/04/08 05:52:46;;;;;;;;;;;;;;;;;;5568949;25;19934;-68
2024/04/08 05:55:12;;;;;;;;;;;;;;;;;;5559128;25;19942;-69
2024/04/08 05:57:37;;;;;;;;;;;;;;;;;;5566878;25;19927;-70
2024/04/08 06:00:03;;;;;;;;;;;;;;;;;;5567618;25;19939;-69
2024/04/08 06:02:30;;;;;;;;;;;;;;;;;;5600004;25;19955;-70
2024/04/08 06:04:56;;;;;;;;;;;;;;;;;;5602456;25;20363;-70
2024/04/08 06:07:22;;;;;;;;;;;;;;;;;;5569198;25;19974;-70
2024/04/08 06:09:48;;;;;;;;;;;;;;;;;;5601558;25;20267;-70
2024/04/08 06:12:14;;;;;;;;;;;;;;;;;;5601726;25;20274;-69
2024/04/08 06:14:40;;;;;;;;;;;;;;;;;;5587508;25;19926;-70
2024/04/08 06:17:06;;;;;;;;;;;;;;;;;;5599894;25;19978;-70
2024/04/08 06:19:32;;;;;;;;;;;;;;;;;;5601166;25;19934;-70
2024/04/08 06:21:58;;;;;;;;;;;;;;;;;;5596100;25;19941;-69
2024/04/08 06:24:24;;;;;;;;;;;;;;;;;;5580994;25;19926;-68
2024/04/08 06:26:50;;;;;;;;;;;;;;;;;;5591722;25;20650;-70
2024/04/08 06:29:16;;;;;;;;;;;;;;;;;;5598282;25;19933;-67
2024/04/08 06:31:42;;;;;;;;;;;;;;;;;;5592632;25;19927;-71
2024/04/08 06:34:08;;;;;;;;;;;;;;;;;;5586138;25;20684;-71
2024/04/08 06:36:35;;;;;;;;;;;;;;;;;;5561222;25;19926;-70
2024/04/08 06:39:01;;;;;;;;;;;;;;;;;;5594204;25;19938;-71
2024/04/08 06:41:27;;;;;;;;;;;;;;;;;;5595666;25;20247;-70
2024/04/08 06:43:53;;;;;;;;;;;;;;;;;;5562197;25;20610;-67
2024/04/08 06:46:19;;;;;;;;;;;;;;;;;;5566440;25;19935;-69
2024/04/08 06:48:45;;;;;;;;;;;;;;;;;;5597760;25;19934;-69
2024/04/08 06:51:10;;;;;;;;;;;;;;;;;;5566623;25;19958;-67
2024/04/08 06:53:38;;;;;;;;;;;;;;;;;;5566325;25;20007;-66
2024/04/08 06:56:04;;;;;;;;;;;;;;;;;;5585933;25;19927;-69
2024/04/08 06:58:32;;;;;;;;;;;;;;;;;;5592749;25;19934;-66
2024/04/08 07:00:58;;;;;;;;;;;;;;;;;;5582652;25;19927;-70
2024/04/08 07:03:24;;;;;;;;;;;;;;;;;;5596789;25;19926;-71
2024/04/08 07:05:50;;;;;;;;;;;;;;;;;;5563841;25;19993;-68
2024/04/08 07:08:19;;;;;;;;;;;;;;;;;;5557443;25;19997;-70
2024/04/08 07:10:45;;;;;;;;;;;;;;;;;;5596326;25;19993;-69
2024/04/08 07:13:11;;;;;;;;;;;;;;;;;;5595083;25;19934;-69
2024/04/08 07:15:37;;;;;;;;;;;;;;;;;;5589582;25;19954;-70
2024/04/08 07:18:04;;;;;;;;;;;;;;;;;;5595151;25;19926;-74
2024/04/08 07:20:30;;;;;;;;;;;;;;;;;;5594723;25;19927;-72
2024/04/08 07:22:56;;;;;;;;;;;;;;;;;;5595128;25;19938;-72
2024/04/08 07:25:22;;;;;;;;;;;;;;;;;;5596460;25;19934;-71
2024/04/08 07:27:48;;;;;;;;;;;;;;;;;;5558217;25;20639;-68
2024/04/08 07:30:14;;;;;;;;;;;;;;;;;;5597301;25;19933;-70
2024/04/08 07:32:41;;;;;;;;;;;;;;;;;;5597277;25;19926;-72
2024/04/08 07:35:07;;;;;;;;;;;;;;;;;;5564409;25;19954;-72
2024/04/08 07:37:33;;;;;;;;;;;;;;;;;;5599367;25;19937;-70
2024/04/08 07:39:59;;;;;;;;;;;;;;;;;;5600239;25;20370;-70
2024/04/08 07:42:26;;;;;;;;;;;;;;;;;;5599325;25;19954;-71
2024/04/08 07:44:52;;;;;;;;;;;;;;;;;;5567505;25;19958;-70
2024/04/08 07:49:55;;;;;;;;;;;;;;;;;;5620233;25;19927;-68
2024/04/08 07:52:21;;;;;;;;;;;;;;;;;;5583386;25;19926;-70
2024/04/08 07:56:16;;;;;;;;;;;;;;;;;;5466649;26;19928;-69
2024/04/08 07:58:42;;;;;;;;;;;;;;;;;;5426689;26;19929;-68
2024/04/08 08:01:08;;;;;;;;;;;;;;;;;;5424548;26;19933;-68
2024/04/08 08:03:34;;;;;;;;;;;;;;;;;;5431279;26;19928;-69
2024/04/08 08:06:00;;;;;;;;;;;;;;;;;;5430200;26;19948;-70
2024/04/08 08:08:26;;;;;;;;;;;;;;;;;;5434053;26;19947;-71
2024/04/08 08:10:52;;;;;;;;;;;;;;;;;;5430347;26;19941;-70
2024/04/08 08:13:18;;;;;;;;;;;;;;;;;;5424984;26;19928;-69
2024/04/08 08:16:03;;;;;;;;;;;;;;;;;;5553537;25;19939;-71
2024/04/08 08:23:02;;;;;;;;;;;;;;;;;;5616375;25;19926;-70
2024/04/08 08:25:28;;;;;;;;;;;;;;;;;;5615057;25;19934;-71
2024/04/08 08:27:54;;;;;;;;;;;;;;;;;;5599897;25;19995;-68
2024/04/08 08:30:20;;;;;;;;;;;;;;;;;;5586921;25;19934;-70
2024/04/08 08:34:04;;;;;;;;;;;;;;;;;;5473274;25;2780366;-70
2024/04/08 08:36:30;;;;;;;;;;;;;;;;;;5544286;25;19932;-71
2024/04/08 08:38:56;;;;;;;;;;;;;;;;;;5543516;25;20317;-70
2024/04/08 08:43:26;;;;;;;;;;;;;;;;;;5524478;25;20370;-72
2024/04/08 08:45:53;;;;;;;;;;;;;;;;;;5512846;25;19928;-68
2024/04/08 08:48:18;;;;;;;;;;;;;;;;;;5486128;25;19927;-70
2024/04/08 08:52:58;;;;;;;;;;;;;;;;;;5574309;25;19934;-68
2024/04/08 08:58:29;;;;;;;;;;;;;;;;;;5466760;26;19929;-70
2024/04/08 09:02:37;;;;;;;;;;;;;;;;;;5574498;25;19937;-68
2024/04/08 09:05:03;;;;;;;;;;;;;;;;;;5532219;25;20339;-70
2024/04/08 09:07:29;;;;;;;;;;;;;;;;;;5556228;25;19979;-70
2024/04/08 09:09:56;;;;;;;;;;;;;;;;;;5572959;25;19927;-69
2024/04/08 09:14:54;;;;;;;;;;;;;;;;;;5462358;26;19935;-69
2024/04/08 09:17:20;;;;;;;;;;;;;;;;;;5463288;26;19928;-69
2024/04/08 09:20:34;;;;;;;;;;;;;;;;;;5430082;26;19936;-68
2024/04/08 09:25:02;;;;;;;;;;;;;;;;;;5542631;25;19927;-69
2024/04/08 09:27:28;;;;;;;;;;;;;;;;;;5542478;25;20477;-70
2024/04/08 09:31:52;;;;;;;;;;;;;;;;;;5458171;26;19933;-67
2024/04/08 09:34:18;;;;;;;;;;;;;;;;;;5461662;26;19952;-68
2024/04/08 09:36:44;;;;;;;;;;;;;;;;;;5422481;26;19937;-69
2024/04/08 09:39:10;;;;;;;;;;;;;;;;;;5443316;26;19928;-69
2024/04/08 09:41:36;;;;;;;;;;;;;;;;;;5464172;26;20859;-69
2024/04/08 09:44:02;;;;;;;;;;;;;;;;;;5459372;26;19935;-70
2024/04/08 09:46:28;;;;;;;;;;;;;;;;;;5450145;26;19956;-71
2024/04/08 09:48:54;;;;;;;;;;;;;;;;;;5438156;26;19928;-70
2024/04/08 09:52:02;;;;;;;;;;;;;;;;;;5523786;25;19931;-69
2024/04/08 09:54:28;;;;;;;;;;;;;;;;;;5510138;25;19927;-70
2024/04/08 09:56:54;;;;;;;;;;;;;;;;;;5521484;25;19952;-71
2024/04/08 09:59:20;;;;;;;;;;;;;;;;;;5524134;25;19928;-71
2024/04/08 10:01:46;;;;;;;;;;;;;;;;;;5547853;25;20376;-70
2024/04/08 10:04:13;;;;;;;;;;;;;;;;;;5517421;25;20371;-70
2024/04/08 10:06:56;;;;;;;;;;;;;;;;;;5617314;25;19933;-69
2024/04/08 10:09:24;;;;;;;;;;;;;;;;;;5595776;25;20414;-72
2024/04/08 10:14:06;;;;;;;;;;;;;;;;;;5585773;25;20334;-68
2024/04/08 10:17:45;;;;;;;;;;;;;;;;;;5454976;26;19929;-67
2024/04/08 10:20:11;;;;;;;;;;;;;;;;;;5447950;26;19936;-71
2024/04/08 10:22:37;;;;;;;;;;;;;;;;;;5436011;26;19959;-68
2024/04/08 10:25:04;;;;;;;;;;;;;;;;;;5449351;26;20387;-67
2024/04/08 10:27:30;;;;;;;;;;;;;;;;;;5450791;26;19928;-70
2024/04/08 10:29:56;;;;;;;;;;;;;;;;;;5432979;26;19929;-70
2024/04/08 10:32:22;;;;;;;;;;;;;;;;;;5417842;26;19937;-72
2024/04/08 10:34:48;;;;;;;;;;;;;;;;;;5408449;26;19940;-69
2024/04/08 10:37:14;;;;;;;;;;;;;;;;;;5442885;26;20001;-71
2024/04/08 10:39:40;;;;;;;;;;;;;;;;;;5430501;26;19928;-70
2024/04/08 10:42:06;;;;;;;;;;;;;;;;;;5433428;26;20383;-71
2024/04/08 10:44:32;;;;;;;;;;;;;;;;;;5441856;26;19929;-70
2024/04/08 10:46:58;;;;;;;;;;;;;;;;;;5453450;26;20447;-70
2024/04/08 10:49:24;;;;;;;;;;;;;;;;;;5440958;26;19929;-70
2024/04/08 10:51:50;;;;;;;;;;;;;;;;;;5427225;26;19929;-71
2024/04/08 10:54:17;;;;;;;;;;;;;;;;;;5436009;26;19935;-71
2024/04/08 10:56:43;;;;;;;;;;;;;;;;;;5449603;26;19936;-69
2024/04/08 10:59:09;;;;;;;;;;;;;;;;;;5390033;26;20365;-73
2024/04/08 11:01:35;;;;;;;;;;;;;;;;;;5410730;26;19936;-72
2024/04/08 11:04:02;;;;;;;;;;;;;;;;;;5427963;26;19936;-71
2024/04/08 11:06:28;;;;;;;;;;;;;;;;;;5428768;26;19929;-70
2024/04/08 11:08:54;;;;;;;;;;;;;;;;;;5449826;26;19941;-69
2024/04/08 11:11:20;;;;;;;;;;;;;;;;;;5446861;26;19928;-70
2024/04/08 11:13:46;;;;;;;;;;;;;;;;;;5464343;26;19939;-69
2024/04/08 11:16:12;;;;;;;;;;;;;;;;;;5430112;26;19985;-70
2024/04/08 11:18:38;;;;;;;;;;;;;;;;;;5433035;26;19940;-70
2024/04/08 11:21:04;;;;;;;;;;;;;;;;;;5445790;26;19939;-65
2024/04/08 11:23:30;;;;;;;;;;;;;;;;;;5463006;26;20225;-67
2024/04/08 11:25:56;;;;;;;;;;;;;;;;;;5436798;26;19928;-67
2024/04/08 11:28:22;;;;;;;;;;;;;;;;;;5429534;26;19929;-67
2024/04/08 11:30:48;;;;;;;;;;;;;;;;;;5431043;26;20385;-66
2024/04/08 11:33:14;;;;;;;;;;;;;;;;;;5422679;26;20261;-65
2024/04/08 11:35:40;;;;;;;;;;;;;;;;;;5423606;26;20254;-66
2024/04/08 11:38:06;;;;;;;;;;;;;;;;;;5438686;26;19956;-66
2024/04/08 11:40:32;;;;;;;;;;;;;;;;;;5417644;26;20467;-66
2024/04/08 11:42:58;;;;;;;;;;;;;;;;;;5420198;26;19929;-68
2024/04/08 11:45:28;;;;;;;;;;;;;;;;;;5424113;26;19936;-67
2024/04/08 11:47:54;;;;;;;;;;;;;;;;;;5431971;26;19993;-65
2024/04/08 11:50:19;;;;;;;;;;;;;;;;;;5451024;26;19929;-66
2024/04/08 11:52:45;;;;;;;;;;;;;;;;;;5443272;26;19929;-68
2024/04/08 11:55:11;;;;;;;;;;;;;;;;;;5439741;26;19936;-65
2024/04/08 11:57:37;;;;;;;;;;;;;;;;;;5442326;26;19941;-66
2024/04/08 12:00:04;;;;;;;;;;;;;;;;;;5409116;26;20369;-67
2024/04/08 12:02:30;;;;;;;;;;;;;;;;;;5437276;26;20229;-68
2024/04/08 12:04:56;;;;;;;;;;;;;;;;;;5414517;26;19936;-68
2024/04/08 12:07:22;;;;;;;;;;;;;;;;;;5432971;26;19941;-68
2024/04/08 12:09:48;;;;;;;;;;;;;;;;;;5452833;26;19928;-68
2024/04/08 12:12:14;;;;;;;;;;;;;;;;;;5432626;26;19929;-69
2024/04/08 12:14:41;;;;;;;;;;;;;;;;;;5415712;26;20377;-69
2024/04/08 12:17:06;;;;;;;;;;;;;;;;;;5417466;26;19929;-68
2024/04/08 12:19:32;;;;;;;;;;;;;;;;;;5416435;26;19949;-68
2024/04/08 12:21:58;;;;;;;;;;;;;;;;;;5417596;26;19937;-68
2024/04/08 12:24:24;;;;;;;;;;;;;;;;;;5418489;26;19961;-68
2024/04/08 12:26:50;;;;;;;;;;;;;;;;;;5425572;26;19933;-67
2024/04/08 12:29:16;;;;;;;;;;;;;;;;;;5428179;26;19929;-67
2024/04/08 12:31:42;;;;;;;;;;;;;;;;;;5454367;26;20005;-67
2024/04/08 12:34:08;;;;;;;;;;;;;;;;;;5432995;26;19928;-66
2024/04/08 12:36:34;;;;;;;;;;;;;;;;;;5408108;26;19929;-67
2024/04/08 12:39:00;;;;;;;;;;;;;;;;;;5426431;26;19928;-67
2024/04/08 12:41:26;;;;;;;;;;;;;;;;;;5422731;26;19929;-68
2024/04/08 12:43:52;;;;;;;;;;;;;;;;;;5426862;26;19962;-69
2024/04/08 12:46:18;;;;;;;;;;;;;;;;;;5417635;26;19936;-70
2024/04/08 12:48:44;;;;;;;;;;;;;;;;;;5413720;26;19929;-67
2024/04/08 12:51:10;;;;;;;;;;;;;;;;;;5414248;26;19941;-68
2024/04/08 12:53:36;;;;;;;;;;;;;;;;;;5394656;26;19965;-68
2024/04/08 12:56:04;;;;;;;;;;;;;;;;;;5418628;26;19936;-68
2024/04/08 12:58:30;;;;;;;;;;;;;;;;;;5418813;26;19999;-71
2024/04/08 13:00:56;;;;;;;;;;;;;;;;;;5417328;26;19945;-71
2024/04/08 13:03:22;;;;;;;;;;;;;;;;;;5418947;26;19962;-71
2024/04/08 13:05:49;;;;;;;;;;;;;;;;;;5418891;26;19930;-72
2024/04/08 13:08:15;;;;;;;;;;;;;;;;;;5418481;26;19937;-72
2024/04/08 13:10:41;;;;;;;;;;;;;;;;;;5418863;26;19936;-73
2024/04/08 13:13:07;;;;;;;;;;;;;;;;;;5418628;26;19933;-72
2024/04/08 13:15:33;;;;;;;;;;;;;;;;;;5417795;26;19929;-73
2024/04/08 13:17:59;;;;;;;;;;;;;;;;;;5418877;26;19979;-72
2024/04/08 13:20:25;;;;;;;;;;;;;;;;;;5419139;26;19941;-72
2024/04/08 13:22:50;;;;;;;;;;;;;;;;;;5418516;26;19936;-72
2024/04/08 13:25:17;;;;;;;;;;;;;;;;;;5417094;26;20349;-71
2024/04/08 13:27:43;;;;;;;;;;;;;;;;;;5418941;26;19941;-71
2024/04/08 13:30:09;;;;;;;;;;;;;;;;;;5416667;26;19936;-72
2024/04/08 13:32:35;;;;;;;;;;;;;;;;;;5418878;26;19929;-72
2024/04/08 13:35:02;;;;;;;;;;;;;;;;;;5416842;26;19936;-73
2024/04/08 13:37:28;;;;;;;;;;;;;;;;;;5418279;26;20447;-73
2024/04/08 13:39:54;;;;;;;;;;;;;;;;;;5418861;26;19980;-72
2024/04/08 13:42:20;;;;;;;;;;;;;;;;;;5416940;26;19929;-72
2024/04/08 13:44:46;;;;;;;;;;;;;;;;;;5418137;26;19999;-72
2024/04/08 13:47:12;;;;;;;;;;;;;;;;;;5418498;26;19929;-72
2024/04/08 13:49:38;;;;;;;;;;;;;;;;;;5418590;26;20052;-72
2024/04/08 13:52:06;;;;;;;;;;;;;;;;;;5417694;26;19932;-72
2024/04/08 13:54:33;;;;;;;;;;;;;;;;;;5418429;26;19962;-72
2024/04/08 13:56:59;;;;;;;;;;;;;;;;;;5417779;26;19937;-72
2024/04/08 13:59:25;;;;;;;;;;;;;;;;;;5418225;26;19929;-72
2024/04/08 14:01:51;;;;;;;;;;;;;;;;;;5418246;26;19936;-72
2024/04/08 14:04:18;;;;;;;;;;;;;;;;;;5418000;26;19928;-72
2024/04/08 14:06:43;;;;;;;;;;;;;;;;;;5418286;26;20290;-72
2024/04/08 14:09:11;;;;;;;;;;;;;;;;;;5416242;26;19929;-72
2024/04/08 14:11:37;;;;;;;;;;;;;;;;;;5415984;26;19929;-71
2024/04/08 14:14:03;;;;;;;;;;;;;;;;;;5417881;26;19935;-72
2024/04/08 14:16:29;;;;;;;;;;;;;;;;;;5415875;26;20372;-72
2024/04/08 14:18:55;;;;;;;;;;;;;;;;;;5415783;26;20297;-72
2024/04/08 14:21:21;;;;;;;;;;;;;;;;;;5416238;26;19932;-71
2024/04/08 14:23:47;;;;;;;;;;;;;;;;;;5418201;26;20249;-72
2024/04/08 14:26:13;;;;;;;;;;;;;;;;;;5415716;26;20337;-71
2024/04/08 14:28:39;;;;;;;;;;;;;;;;;;5417919;26;20434;-72
2024/04/08 14:31:05;;;;;;;;;;;;;;;;;;5417834;26;19998;-71
2024/04/08 14:33:31;;;;;;;;;;;;;;;;;;5417547;26;19941;-71
2024/04/08 14:35:57;;;;;;;;;;;;;;;;;;5415847;26;19935;-71
2024/04/08 14:38:23;;;;;;;;;;;;;;;;;;5417488;26;19936;-71
2024/04/08 14:40:49;;;;;;;;;;;;;;;;;;5416927;26;19928;-71
2024/04/08 14:43:15;;;;;;;;;;;;;;;;;;5417253;26;19929;-71
2024/04/08 14:45:41;;;;;;;;;;;;;;;;;;5417629;26;20007;-71
2024/04/08 14:48:07;;;;;;;;;;;;;;;;;;5416981;26;20004;-71
2024/04/08 14:50:32;;;;;;;;;;;;;;;;;;5415734;26;20361;-70
2024/04/08 14:52:58;;;;;;;;;;;;;;;;;;5417455;26;20365;-70
2024/04/08 14:55:24;;;;;;;;;;;;;;;;;;5416857;26;20373;-71
2024/04/08 14:57:50;;;;;;;;;;;;;;;;;;5417378;26;20369;-72
2024/04/08 15:00:16;;;;;;;;;;;;;;;;;;5416896;26;19929;-71
2024/04/08 15:02:44;;;;;;;;;;;;;;;;;;5417978;26;19998;-71
2024/04/08 15:05:10;;;;;;;;;;;;;;;;;;5420682;26;20323;-71
2024/04/08 15:07:37;;;;;;;;;;;;;;;;;;5420450;26;19929;-71
2024/04/08 15:10:03;;;;;;;;;;;;;;;;;;5420893;26;20261;-71
2024/04/08 15:12:29;;;;;;;;;;;;;;;;;;5420743;26;19929;-71
2024/04/08 15:14:55;;;;;;;;;;;;;;;;;;5420259;26;20415;-71
2024/04/08 15:17:21;;;;;;;;;;;;;;;;;;5420404;26;20257;-71
2024/04/08 15:19:47;;;;;;;;;;;;;;;;;;5420214;26;19936;-71
2024/04/08 15:22:14;;;;;;;;;;;;;;;;;;5420264;26;19929;-71
2024/04/08 15:24:40;;;;;;;;;;;;;;;;;;5420373;26;20369;-72
2024/04/08 15:27:06;;;;;;;;;;;;;;;;;;5420404;26;19929;-71
2024/04/08 15:29:32;;;;;;;;;;;;;;;;;;5420176;26;19940;-71
2024/04/08 15:32:00;;;;;;;;;;;;;;;;;;5420602;26;19929;-71
2024/04/08 15:34:26;;;;;;;;;;;;;;;;;;5420521;26;20276;-71
2024/04/08 15:36:52;;;;;;;;;;;;;;;;;;5418323;26;19997;-71
2024/04/08 15:39:18;;;;;;;;;;;;;;;;;;5420517;26;20295;-71
2024/04/08 15:41:44;;;;;;;;;;;;;;;;;;5420447;26;20265;-71
2024/04/08 15:44:10;;;;;;;;;;;;;;;;;;5418044;26;19929;-71
2024/04/08 15:46:36;;;;;;;;;;;;;;;;;;5420433;26;19936;-71
2024/04/08 15:49:01;;;;;;;;;;;;;;;;;;5420371;26;19929;-71
2024/04/08 15:51:28;;;;;;;;;;;;;;;;;;5417984;26;19929;-71
2024/04/08 15:53:53;;;;;;;;;;;;;;;;;;5418514;26;19935;-72
2024/04/08 15:56:19;;;;;;;;;;;;;;;;;;5419670;26;19929;-72
2024/04/08 15:58:45;;;;;;;;;;;;;;;;;;5420202;26;19936;-72
2024/04/08 16:01:13;;;;;;;;;;;;;;;;;;5420076;26;19941;-72
2024/04/08 16:03:39;;;;;;;;;;;;;;;;;;5419594;26;20373;-72
2024/04/08 16:06:05;;;;;;;;;;;;;;;;;;5420206;26;19940;-72
2024/04/08 16:08:31;;;;;;;;;;;;;;;;;;5420095;26;19937;-72
2024/04/08 16:10:57;;;;;;;;;;;;;;;;;;5419205;26;20006;-72
2024/04/08 16:13:23;;;;;;;;;;;;;;;;;;5419900;26;19936;-72
2024/04/08 16:15:49;;;;;;;;;;;;;;;;;;5419690;26;19964;-71
2024/04/08 16:18:15;;;;;;;;;;;;;;;;;;5419689;26;19929;-72
2024/04/08 16:20:41;;;;;;;;;;;;;;;;;;5419897;26;19929;-72
2024/04/08 16:23:07;;;;;;;;;;;;;;;;;;5417924;26;19929;-71
2024/04/08 16:25:33;;;;;;;;;;;;;;;;;;5419454;26;19957;-71
2024/04/08 16:27:59;;;;;;;;;;;;;;;;;;5419849;26;20006;-73
2024/04/08 16:30:25;;;;;;;;;;;;;;;;;;5419749;26;19941;-71
2024/04/08 16:32:50;;;;;;;;;;;;;;;;;;5419396;26;19929;-71
2024/04/08 16:35:16;;;;;;;;;;;;;;;;;;5419699;26;19944;-71
2024/04/08 16:37:42;;;;;;;;;;;;;;;;;;5419524;26;19936;-72
2024/04/08 16:40:08;;;;;;;;;;;;;;;;;;5418890;26;19937;-72
2024/04/08 16:42:34;;;;;;;;;;;;;;;;;;5419446;26;19940;-71
2024/04/08 16:45:00;;;;;;;;;;;;;;;;;;5419561;26;19929;-71
2024/04/08 16:47:26;;;;;;;;;;;;;;;;;;5419055;26;19933;-72
2024/04/08 16:49:52;;;;;;;;;;;;;;;;;;5419559;26;19929;-72
2024/04/08 16:52:18;;;;;;;;;;;;;;;;;;5419583;26;19936;-72
2024/04/08 16:54:44;;;;;;;;;;;;;;;;;;5418982;26;19929;-72
2024/04/08 16:57:10;;;;;;;;;;;;;;;;;;5418938;26;19929;-72
2024/04/08 16:59:36;;;;;;;;;;;;;;;;;;5419079;26;19936;-72
2024/04/08 17:02:02;;;;;;;;;;;;;;;;;;5419160;26;19941;-72
2024/04/08 17:04:28;;;;;;;;;;;;;;;;;;5419349;26;19929;-72
2024/04/08 17:07:47;;;;;;;;;;;;;;;;;;5621659;25;19933;-72
2024/04/08 17:10:13;;;;;;;;;;;;;;;;;;5622331;25;19963;-72